Terminal Aerodrome Forecast
Issued by NWS

Home | Current Version | Previous Version | Text Only | Print | Product List | Glossary On
Versions: 1 2 3 4 5 6 7 8 9 10 11 12 13 14 15 16 17 18 19 20 21 22 23 24 25 26 27 28 29 30
000
FTUS45 KSLC 252332
TAFBCE
TAF
KBCE 252332Z 2600/2624 30013G20KT P6SM SCT120
     FM260100 30009KT P6SM FEW080 SCT120=

USA.gov is the U.S. government's official web portal to all federal, state and local government web resources and services.